createdAt,value
2023-10-06T00:02:30.686Z,42.69
2023-10-06T00:04:59.988Z,42.49
2023-10-06T00:07:28.989Z,42.44
2023-10-06T00:09:57.923Z,42.00
2023-10-06T00:12:28.103Z,41.89
2023-10-06T00:14:59.484Z,41.97
2023-10-06T00:17:29.792Z,41.88
2023-10-06T00:20:01.335Z,41.71
2023-10-06T00:22:30.749Z,41.95
2023-10-06T00:25:01.372Z,42.32
2023-10-06T00:27:31.929Z,42.45
2023-10-06T00:30:01.404Z,42.45
2023-10-06T00:32:30.590Z,42.61
2023-10-06T00:35:09.596Z,42.63
2023-10-06T00:37:40.877Z,42.64
2023-10-06T00:40:12.322Z,42.59
2023-10-06T00:42:41.910Z,42.54
2023-10-06T00:45:11.892Z,42.61
2023-10-06T00:47:41.041Z,42.85
2023-10-06T00:50:12.251Z,42.57
2023-10-06T00:52:44.374Z,42.40
2023-10-06T00:55:15.564Z,42.40
2023-10-06T00:57:47.626Z,43.42
2023-10-06T01:00:21.932Z,43.25
2023-10-06T01:02:52.081Z,43.22
2023-10-06T01:05:21.536Z,43.04
2023-10-06T01:07:51.201Z,43.08
2023-10-06T01:10:29.634Z,43.02
2023-10-06T01:12:58.984Z,43.10
2023-10-06T01:15:31.082Z,43.26
2023-10-06T01:18:03.994Z,42.98
2023-10-06T01:20:41.617Z,42.99
2023-10-06T01:23:18.714Z,43.18
2023-10-06T01:25:48.700Z,43.07
2023-10-06T01:28:17.632Z,42.83
2023-10-06T01:30:46.665Z,42.82
2023-10-06T01:33:15.569Z,42.87
2023-10-06T01:35:44.578Z,42.90
2023-10-06T01:38:21.066Z,42.78
2023-10-06T01:40:53.836Z,42.78
2023-10-06T01:43:24.865Z,42.84
2023-10-06T01:45:54.164Z,42.91
2023-10-06T01:48:25.686Z,42.93
2023-10-06T01:50:56.469Z,42.91
2023-10-06T01:53:32.831Z,42.98
2023-10-06T01:56:08.017Z,43.00
2023-10-06T01:58:37.941Z,43.10
2023-10-06T02:01:08.187Z,43.08
2023-10-06T02:03:42.848Z,43.10
2023-10-06T02:06:17.126Z,43.14
2023-10-06T02:08:50.785Z,43.41
2023-10-06T02:11:22.147Z,43.62
2023-10-06T02:13:50.982Z,43.51
2023-10-06T02:16:24.330Z,43.73
2023-10-06T02:18:55.211Z,43.69
2023-10-06T02:21:25.999Z,43.74
2023-10-06T02:24:00.034Z,44.05
2023-10-06T02:26:29.069Z,43.98
2023-10-06T02:28:58.428Z,44.09
2023-10-06T02:31:29.099Z,44.18
2023-10-06T02:33:58.085Z,44.15
2023-10-06T02:36:26.878Z,44.16
2023-10-06T02:38:55.761Z,44.30
2023-10-06T02:41:27.367Z,44.43
2023-10-06T02:43:59.006Z,44.56
2023-10-06T02:46:27.984Z,44.73
2023-10-06T02:48:57.159Z,44.81
2023-10-06T02:51:33.740Z,44.95
2023-10-06T02:54:22.240Z,44.87
2023-10-06T02:56:52.201Z,45.04
2023-10-06T02:59:24.412Z,45.09
2023-10-06T03:01:57.502Z,44.99
2023-10-06T03:04:28.128Z,45.37
2023-10-06T03:06:59.893Z,45.43
2023-10-06T03:09:39.306Z,45.57
2023-10-06T03:12:16.714Z,45.58
2023-10-06T03:14:45.911Z,45.59
2023-10-06T03:17:15.343Z,45.66
2023-10-06T03:19:45.395Z,45.86
2023-10-06T03:22:15.337Z,45.86
2023-10-06T03:24:54.859Z,46.16
2023-10-06T03:27:25.188Z,46.03
2023-10-06T03:29:57.041Z,46.04
2023-10-06T03:32:33.788Z,46.20
2023-10-06T03:35:15.629Z,46.13
2023-10-06T03:37:53.117Z,46.09
2023-10-06T03:40:26.580Z,46.11
2023-10-06T03:42:57.796Z,46.07
2023-10-06T03:45:32.598Z,46.05
2023-10-06T03:48:13.054Z,46.12
2023-10-06T03:50:45.176Z,46.11
2023-10-06T03:53:16.050Z,46.14
2023-10-06T03:55:48.416Z,46.21
2023-10-06T03:58:19.339Z,46.22
2023-10-06T04:00:51.141Z,46.26
2023-10-06T04:03:20.753Z,46.19
2023-10-06T04:05:51.475Z,46.18
2023-10-06T04:08:23.292Z,46.09
2023-10-06T04:10:56.094Z,46.10
2023-10-06T04:13:25.303Z,46.08
2023-10-06T04:15:55.900Z,46.13
2023-10-06T04:18:26.208Z,45.77
2023-10-06T04:20:56.778Z,45.86
2023-10-06T04:23:25.711Z,45.69
2023-10-06T04:25:57.666Z,45.63
2023-10-06T04:28:29.414Z,45.80
2023-10-06T04:31:02.449Z,45.72
2023-10-06T04:33:31.752Z,45.67
2023-10-06T04:36:08.561Z,45.90
2023-10-06T04:38:40.300Z,45.93
2023-10-06T04:41:10.540Z,46.04
2023-10-06T04:43:45.512Z,46.04
2023-10-06T04:46:15.529Z,45.99
2023-10-06T04:48:44.606Z,46.03
2023-10-06T04:51:13.541Z,45.99
2023-10-06T04:53:43.040Z,46.09
2023-10-06T04:56:12.243Z,46.08
2023-10-06T04:58:41.671Z,46.38
2023-10-06T05:01:12.160Z,46.35
2023-10-06T05:03:44.770Z,46.30
2023-10-06T05:06:19.295Z,46.22
2023-10-06T05:08:49.430Z,46.27
2023-10-06T05:11:19.518Z,46.13
2023-10-06T05:13:50.839Z,45.96
2023-10-06T05:16:21.148Z,46.13
2023-10-06T05:18:50.670Z,46.13
2023-10-06T05:21:20.493Z,46.29
2023-10-06T05:23:49.611Z,46.46
2023-10-06T05:26:22.136Z,46.42
2023-10-06T05:28:52.911Z,46.26
2023-10-06T05:31:23.606Z,46.36
2023-10-06T05:33:53.060Z,46.42
2023-10-06T05:36:21.913Z,46.22
2023-10-06T05:38:51.452Z,46.20
2023-10-06T05:41:20.538Z,46.10
2023-10-06T05:43:50.267Z,46.06
2023-10-06T05:46:20.625Z,46.24
2023-10-06T05:48:52.566Z,46.18
2023-10-06T05:51:22.636Z,46.44
2023-10-06T05:53:53.253Z,46.49
2023-10-06T05:56:24.638Z,46.55
2023-10-06T05:58:54.302Z,46.47
2023-10-06T06:01:30.054Z,46.29
2023-10-06T06:03:59.206Z,46.05
2023-10-06T06:06:28.447Z,45.80
2023-10-06T06:08:57.575Z,45.22
2023-10-06T06:11:29.090Z,44.90
2023-10-06T06:14:15.176Z,44.64
2023-10-06T06:16:46.565Z,44.10
2023-10-06T06:19:16.085Z,43.84
2023-10-06T06:21:46.191Z,43.57
2023-10-06T06:24:21.300Z,43.54
2023-10-06T06:26:51.565Z,43.45
2023-10-06T06:29:21.323Z,43.29
2023-10-06T06:31:54.080Z,43.33
2023-10-06T06:34:23.119Z,43.11
2023-10-06T06:36:52.787Z,43.14
2023-10-06T06:39:24.237Z,43.14
2023-10-06T06:41:54.641Z,43.06
2023-10-06T06:44:24.455Z,42.98
2023-10-06T06:46:53.353Z,42.64
2023-10-06T06:49:22.279Z,42.67
2023-10-06T06:51:53.286Z,42.63
2023-10-06T06:54:22.173Z,42.69
2023-10-06T06:56:50.989Z,42.60
2023-10-06T06:59:20.323Z,42.56
2023-10-06T07:01:50.029Z,42.23
2023-10-06T07:04:19.014Z,42.22
2023-10-06T07:06:48.025Z,42.41
2023-10-06T07:09:19.035Z,42.80
2023-10-06T07:11:48.133Z,42.46
2023-10-06T07:14:16.961Z,42.75
2023-10-06T07:16:46.440Z,42.46
2023-10-06T07:19:15.970Z,42.30
2023-10-06T07:21:44.985Z,42.25
2023-10-06T07:24:14.838Z,42.24
2023-10-06T07:26:44.870Z,42.17
2023-10-06T07:29:15.375Z,41.85
2023-10-06T07:31:44.421Z,41.70
2023-10-06T07:34:15.454Z,41.53
2023-10-06T07:36:45.097Z,41.62
2023-10-06T07:39:21.762Z,41.41
2023-10-06T07:41:52.022Z,41.19
2023-10-06T07:44:22.171Z,40.90
2023-10-06T07:46:53.666Z,40.79
2023-10-06T07:49:22.863Z,40.61
2023-10-06T07:51:51.748Z,40.57
2023-10-06T07:54:20.640Z,40.94
2023-10-06T07:56:50.364Z,40.64
2023-10-06T07:59:19.171Z,40.39
2023-10-06T08:01:49.674Z,40.20
2023-10-06T08:04:19.790Z,40.50
2023-10-06T08:06:48.689Z,40.56
2023-10-06T08:09:18.391Z,40.63
2023-10-06T08:11:47.290Z,40.34
2023-10-06T08:14:16.528Z,40.41
2023-10-06T08:16:47.061Z,40.44
2023-10-06T08:19:15.952Z,40.51
2023-10-06T08:21:45.927Z,40.49
2023-10-06T08:24:14.783Z,40.78
2023-10-06T08:26:44.002Z,40.46
2023-10-06T08:29:13.440Z,40.32
2023-10-06T08:31:43.724Z,40.66
2023-10-06T08:34:13.198Z,39.90
2023-10-06T08:36:44.201Z,39.44
2023-10-06T08:39:14.670Z,39.15
2023-10-06T08:41:45.880Z,39.11
2023-10-06T08:44:15.567Z,39.64
2023-10-06T08:46:46.016Z,39.43
2023-10-06T08:49:19.830Z,38.94
2023-10-06T08:51:51.729Z,39.28
2023-10-06T08:54:20.818Z,38.98
2023-10-06T08:56:50.395Z,38.89
2023-10-06T08:59:21.557Z,38.43
2023-10-06T09:01:51.399Z,38.09
2023-10-06T09:04:22.366Z,38.11
2023-10-06T09:07:13.129Z,38.48
2023-10-06T09:09:44.150Z,38.57
2023-10-06T09:12:24.975Z,38.62
2023-10-06T09:14:55.666Z,38.78
2023-10-06T09:17:37.371Z,38.89
2023-10-06T09:20:20.093Z,38.97
2023-10-06T09:22:53.352Z,39.24
2023-10-06T09:25:22.767Z,39.47
2023-10-06T09:28:04.059Z,39.38
2023-10-06T09:30:51.290Z,39.44
2023-10-06T09:33:22.242Z,39.19
2023-10-06T09:36:02.873Z,38.99
2023-10-06T09:38:31.941Z,39.38
2023-10-06T09:41:01.040Z,39.61
2023-10-06T09:43:34.174Z,39.50
2023-10-06T09:46:14.748Z,39.43
2023-10-06T09:48:45.143Z,39.80
2023-10-06T09:51:14.479Z,39.80
2023-10-06T09:53:45.266Z,40.00
2023-10-06T09:56:17.475Z,39.83
2023-10-06T09:58:50.400Z,39.68
2023-10-06T10:01:24.350Z,39.06
2023-10-06T10:03:57.997Z,39.12
2023-10-06T10:06:27.693Z,39.04
2023-10-06T10:08:56.816Z,39.15
2023-10-06T10:11:35.096Z,39.50
2023-10-06T10:14:41.255Z,39.46
2023-10-06T10:17:19.670Z,39.31
2023-10-06T10:19:50.879Z,39.27
2023-10-06T10:22:22.581Z,39.30
2023-10-06T10:25:21.174Z,39.19
2023-10-06T10:27:42.193Z,38.65
2023-10-06T10:30:12.769Z,38.28
2023-10-06T10:32:56.833Z,38.46
2023-10-06T10:35:27.124Z,38.28
2023-10-06T10:38:06.101Z,38.00
2023-10-06T10:40:49.839Z,37.44
2023-10-06T10:43:19.122Z,37.45
2023-10-06T10:45:49.122Z,37.54
2023-10-06T10:48:19.887Z,37.01
2023-10-06T10:50:56.562Z,37.00
2023-10-06T10:53:26.236Z,37.07
2023-10-06T10:55:55.732Z,36.95
2023-10-06T10:58:54.872Z,36.03
2023-10-06T11:01:27.759Z,35.99
2023-10-06T11:04:15.819Z,35.94
2023-10-06T11:06:44.965Z,36.05
2023-10-06T11:09:26.500Z,36.34
2023-10-06T11:12:11.766Z,36.08
2023-10-06T11:14:47.251Z,35.39
2023-10-06T11:17:16.228Z,35.33
2023-10-06T11:19:45.395Z,34.86
2023-10-06T11:22:20.545Z,34.98
2023-10-06T11:24:50.994Z,34.84
2023-10-06T11:27:23.940Z,35.06
2023-10-06T11:29:54.102Z,34.84
2023-10-06T11:32:23.790Z,34.91
2023-10-06T11:34:52.996Z,34.89
2023-10-06T11:37:25.480Z,34.57
2023-10-06T11:39:55.917Z,34.73
2023-10-06T11:42:27.719Z,34.54
2023-10-06T11:44:58.794Z,34.35
2023-10-06T11:47:30.493Z,34.46
2023-10-06T11:50:05.902Z,34.48
2023-10-06T11:52:35.213Z,33.92
2023-10-06T11:55:10.223Z,33.88
2023-10-06T11:57:49.179Z,34.30
2023-10-06T12:00:18.826Z,33.82
2023-10-06T12:02:51.086Z,33.93
2023-10-06T12:05:21.066Z,34.01
2023-10-06T12:07:53.564Z,34.10
2023-10-06T12:10:22.664Z,33.91
2023-10-06T12:12:53.162Z,34.47
2023-10-06T12:15:22.063Z,34.40
2023-10-06T12:17:51.881Z,34.57
2023-10-06T12:20:20.881Z,34.29
2023-10-06T12:22:50.158Z,34.29
2023-10-06T12:25:21.824Z,33.66
2023-10-06T12:27:51.602Z,34.04
2023-10-06T12:30:20.763Z,34.11
2023-10-06T12:32:49.594Z,33.97
2023-10-06T12:35:20.294Z,33.86
2023-10-06T12:37:50.148Z,33.98
2023-10-06T12:40:18.914Z,33.97
2023-10-06T12:42:47.816Z,33.85
2023-10-06T12:45:20.026Z,34.25
2023-10-06T12:47:50.817Z,34.38
2023-10-06T12:50:22.082Z,34.19
2023-10-06T12:52:53.394Z,33.77
2023-10-06T12:55:25.623Z,33.73
2023-10-06T12:57:55.585Z,33.76
2023-10-06T13:00:24.400Z,33.79
2023-10-06T13:02:53.426Z,33.91
2023-10-06T13:05:24.242Z,33.23
2023-10-06T13:07:53.511Z,33.33
2023-10-06T13:10:23.491Z,33.44
2023-10-06T13:12:52.891Z,33.25
2023-10-06T13:15:22.149Z,33.49
2023-10-06T13:17:51.562Z,33.86
2023-10-06T13:20:20.689Z,33.75
2023-10-06T13:22:50.024Z,33.93
2023-10-06T13:25:19.712Z,34.05
2023-10-06T13:27:49.647Z,34.17
2023-10-06T13:30:21.221Z,34.16
2023-10-06T13:32:54.711Z,33.60
2023-10-06T13:35:24.913Z,33.88
2023-10-06T13:37:54.565Z,33.89
2023-10-06T13:40:23.612Z,34.06
2023-10-06T13:42:53.541Z,33.80
2023-10-06T13:45:24.385Z,34.10
2023-10-06T13:47:55.158Z,34.31
2023-10-06T13:50:26.033Z,34.77
2023-10-06T13:52:55.155Z,34.69
2023-10-06T13:55:25.505Z,34.25
2023-10-06T13:57:55.767Z,34.68
2023-10-06T14:00:30.327Z,34.98
2023-10-06T14:03:04.975Z,35.20
2023-10-06T14:05:34.383Z,34.93
2023-10-06T14:08:05.545Z,35.25
2023-10-06T14:10:37.243Z,35.52
2023-10-06T14:13:09.952Z,35.50
2023-10-06T14:15:46.565Z,35.34
2023-10-06T14:18:17.675Z,35.22
2023-10-06T14:20:50.960Z,35.50
2023-10-06T14:23:25.873Z,35.78
2023-10-06T14:25:57.471Z,35.67
2023-10-06T14:28:26.579Z,35.71
2023-10-06T14:30:58.201Z,35.83
2023-10-06T14:33:39.865Z,35.92
2023-10-06T14:36:25.930Z,36.23
2023-10-06T14:39:08.835Z,36.59
2023-10-06T14:41:51.563Z,36.83
2023-10-06T14:44:34.353Z,36.88
2023-10-06T14:47:03.414Z,36.99
2023-10-06T14:49:32.414Z,37.11
2023-10-06T14:52:02.308Z,37.37
2023-10-06T14:54:32.830Z,37.31
2023-10-06T14:57:06.293Z,37.28
2023-10-06T14:59:36.098Z,37.18
2023-10-06T15:02:08.212Z,37.17
2023-10-06T15:04:40.047Z,37.37
2023-10-06T15:07:10.272Z,37.60
2023-10-06T15:09:40.501Z,37.77
2023-10-06T15:12:09.592Z,37.71
2023-10-06T15:14:40.322Z,37.84
2023-10-06T15:17:12.448Z,38.06
2023-10-06T15:19:41.497Z,38.29
2023-10-06T15:22:10.774Z,38.57
2023-10-06T15:24:41.329Z,38.78
2023-10-06T15:27:10.744Z,38.89
2023-10-06T15:29:41.593Z,39.16
2023-10-06T15:32:13.153Z,39.23
2023-10-06T15:34:42.545Z,39.29
2023-10-06T15:37:11.341Z,39.52
2023-10-06T15:39:40.188Z,39.65
2023-10-06T15:42:11.131Z,39.77
2023-10-06T15:44:40.114Z,39.91
2023-10-06T15:47:11.207Z,40.18
2023-10-06T15:49:40.177Z,40.38
2023-10-06T15:52:09.644Z,40.39
2023-10-06T15:54:41.437Z,40.47
2023-10-06T15:57:10.742Z,40.67
2023-10-06T15:59:40.009Z,40.78
2023-10-06T16:02:11.018Z,40.88
2023-10-06T16:04:40.477Z,41.04
2023-10-06T16:07:11.640Z,41.37
2023-10-06T16:09:40.768Z,41.47
2023-10-06T16:12:12.824Z,41.53
2023-10-06T16:14:41.740Z,41.76
2023-10-06T16:17:11.175Z,41.81
2023-10-06T16:19:40.550Z,41.97
2023-10-06T16:22:10.760Z,42.11
2023-10-06T16:24:40.263Z,42.00
2023-10-06T16:27:09.184Z,42.31
2023-10-06T16:29:38.559Z,42.46
2023-10-06T16:32:09.178Z,42.72
2023-10-06T16:34:39.572Z,42.73
2023-10-06T16:37:09.754Z,42.91
2023-10-06T16:39:38.635Z,42.96
2023-10-06T16:42:09.579Z,43.15
2023-10-06T16:44:39.070Z,43.21
2023-10-06T16:47:08.257Z,43.18
2023-10-06T16:49:37.182Z,43.29
2023-10-06T16:52:06.305Z,43.44
2023-10-06T16:54:35.224Z,43.60
2023-10-06T16:57:04.282Z,43.64
2023-10-06T16:59:33.199Z,43.81
2023-10-06T17:02:02.307Z,43.81
2023-10-06T17:04:31.318Z,43.99
2023-10-06T17:07:00.088Z,43.97
2023-10-06T17:09:32.408Z,43.97
2023-10-06T17:12:07.387Z,43.95
2023-10-06T17:14:37.149Z,44.11
2023-10-06T17:17:06.420Z,44.32
2023-10-06T17:19:35.434Z,44.33
2023-10-06T17:22:04.399Z,44.51
2023-10-06T17:24:33.447Z,44.58
2023-10-06T17:27:02.591Z,44.68
2023-10-06T17:29:34.294Z,44.67
2023-10-06T17:32:03.497Z,44.91
2023-10-06T17:34:32.723Z,44.93
2023-10-06T17:37:26.929Z,44.80
2023-10-06T17:39:51.024Z,44.82
2023-10-06T17:42:19.835Z,44.86
2023-10-06T17:44:48.847Z,44.91
2023-10-06T17:49:52.289Z,44.96
2023-10-06T17:52:22.226Z,45.04
2023-10-06T17:54:51.231Z,44.99
2023-10-06T17:57:20.826Z,44.96
2023-10-06T17:59:50.252Z,45.01
2023-10-06T18:02:20.863Z,45.09
2023-10-06T18:04:50.896Z,45.14
2023-10-06T18:07:20.676Z,45.14
2023-10-06T18:09:49.648Z,45.13
2023-10-06T18:14:50.411Z,45.23
2023-10-06T18:17:21.372Z,45.20
2023-10-06T18:19:50.427Z,45.34
2023-10-06T18:22:21.730Z,45.24
2023-10-06T18:24:52.670Z,45.25
2023-10-06T18:27:22.658Z,45.18
2023-10-06T18:29:51.516Z,45.21
2023-10-06T18:32:21.516Z,45.07
2023-10-06T18:34:50.504Z,45.14
2023-10-06T18:37:19.459Z,45.06
2023-10-06T18:39:48.299Z,45.19
2023-10-06T18:42:17.485Z,45.12
2023-10-06T18:44:46.470Z,45.06
2023-10-06T18:47:15.314Z,45.19
2023-10-06T18:49:44.726Z,45.05
2023-10-06T18:52:15.014Z,44.91
2023-10-06T18:54:44.008Z,44.90
2023-10-06T18:57:14.287Z,45.10
2023-10-06T18:59:43.369Z,44.93
2023-10-06T19:02:13.084Z,44.84
2023-10-06T19:04:42.453Z,44.78
2023-10-06T19:07:12.953Z,44.84
2023-10-06T19:09:41.845Z,45.06
2023-10-06T19:12:10.671Z,44.91
2023-10-06T19:14:40.711Z,45.03
2023-10-06T19:17:10.139Z,45.05
2023-10-06T19:19:39.267Z,45.09
2023-10-06T19:22:08.135Z,44.98
2023-10-06T19:24:37.649Z,44.94
2023-10-06T19:27:07.729Z,44.80
2023-10-06T19:29:36.810Z,44.94
2023-10-06T19:32:06.198Z,44.87
2023-10-06T19:34:35.739Z,45.02
2023-10-06T19:37:04.797Z,44.99
2023-10-06T19:39:35.377Z,44.97
2023-10-06T19:42:04.772Z,44.96
2023-10-06T19:44:36.068Z,44.87
2023-10-06T19:47:05.244Z,44.88
2023-10-06T19:49:38.560Z,44.85
2023-10-06T19:52:09.204Z,44.88
2023-10-06T19:54:38.269Z,44.96
2023-10-06T19:57:07.158Z,45.10
2023-10-06T19:59:36.533Z,45.10
2023-10-06T20:02:06.874Z,44.96
2023-10-06T20:04:35.858Z,45.18
2023-10-06T20:07:06.356Z,45.20
2023-10-06T20:09:35.350Z,45.12
2023-10-06T20:12:04.239Z,45.03
2023-10-06T20:14:33.056Z,45.33
2023-10-06T20:17:02.116Z,45.23
2023-10-06T20:19:31.747Z,45.21
2023-10-06T20:22:00.565Z,45.31
2023-10-06T20:24:30.404Z,45.44
2023-10-06T20:26:59.280Z,45.55
2023-10-06T20:29:28.290Z,45.46
2023-10-06T20:31:57.194Z,45.63
2023-10-06T20:34:26.289Z,45.60
2023-10-06T20:36:55.970Z,45.75
2023-10-06T20:39:25.665Z,45.54
2023-10-06T20:41:54.843Z,45.74
2023-10-06T20:44:23.702Z,46.02
2023-10-06T20:46:52.853Z,45.98
2023-10-06T20:49:21.990Z,46.12
2023-10-06T20:51:50.811Z,46.07
2023-10-06T20:54:19.667Z,46.12
2023-10-06T20:56:48.494Z,45.94
2023-10-06T20:59:17.632Z,46.00
2023-10-06T21:01:47.962Z,45.96
2023-10-06T21:04:16.993Z,46.06
2023-10-06T21:06:45.914Z,45.81
2023-10-06T21:09:16.787Z,45.68
2023-10-06T21:11:45.701Z,45.82
2023-10-06T21:14:17.445Z,45.64
2023-10-06T21:16:47.368Z,45.67
2023-10-06T21:19:16.462Z,45.72
2023-10-06T21:21:45.350Z,45.62
2023-10-06T21:24:14.183Z,45.52
2023-10-06T21:26:44.574Z,45.40
2023-10-06T21:29:13.442Z,45.27
2023-10-06T21:31:42.253Z,45.42
2023-10-06T21:34:11.319Z,45.58
2023-10-06T21:36:40.435Z,45.33
2023-10-06T21:39:09.338Z,45.36
2023-10-06T21:41:39.820Z,45.39
2023-10-06T21:44:09.007Z,45.28
2023-10-06T21:46:38.339Z,45.34
2023-10-06T21:49:10.354Z,45.38
2023-10-06T21:51:39.149Z,45.26
2023-10-06T21:54:08.777Z,45.53
2023-10-06T21:56:38.296Z,45.55
2023-10-06T21:59:07.313Z,45.42
2023-10-06T22:01:36.694Z,45.31
2023-10-06T22:04:05.993Z,45.27
2023-10-06T22:06:34.935Z,45.29
2023-10-06T22:09:04.115Z,45.22
2023-10-06T22:11:35.170Z,45.22
2023-10-06T22:14:04.009Z,45.44
2023-10-06T22:16:33.264Z,45.16
2023-10-06T22:19:02.313Z,44.97
2023-10-06T22:21:31.115Z,45.04
2023-10-06T22:24:00.068Z,45.13
2023-10-06T22:26:28.893Z,45.39
2023-10-06T22:28:57.781Z,45.35
2023-10-06T22:31:26.665Z,45.31
2023-10-06T22:33:56.634Z,45.25
2023-10-06T22:36:25.893Z,45.24
2023-10-06T22:38:55.212Z,45.24
2023-10-06T22:41:25.045Z,45.48
2023-10-06T22:43:54.236Z,45.39
2023-10-06T22:46:24.295Z,45.43
2023-10-06T22:48:53.385Z,45.52
2023-10-06T22:51:22.387Z,45.43
2023-10-06T22:53:51.153Z,45.57
2023-10-06T22:56:19.980Z,45.73
2023-10-06T22:58:49.390Z,45.76
2023-10-06T23:01:18.409Z,45.59
2023-10-06T23:03:47.966Z,45.72
2023-10-06T23:06:18.647Z,45.69
2023-10-06T23:08:47.820Z,45.53
2023-10-06T23:11:17.716Z,45.48
2023-10-06T23:13:46.862Z,45.31
2023-10-06T23:16:18.501Z,44.95
2023-10-06T23:18:47.973Z,44.95
2023-10-06T23:21:17.081Z,44.85
2023-10-06T23:23:48.538Z,44.78
2023-10-06T23:26:17.395Z,44.55
2023-10-06T23:28:47.475Z,44.57
2023-10-06T23:31:17.117Z,44.29
2023-10-06T23:33:45.937Z,43.97
2023-10-06T23:36:14.787Z,44.12
2023-10-06T23:38:43.706Z,43.63
2023-10-06T23:41:13.647Z,43.77
2023-10-06T23:43:43.181Z,43.64
2023-10-06T23:46:16.689Z,43.33
2023-10-06T23:48:48.796Z,43.32
2023-10-06T23:51:17.707Z,43.40
2023-10-06T23:53:46.901Z,43.08
2023-10-06T23:56:32.109Z,42.92
2023-10-06T23:59:10.942Z,42.68
